Time;durP1;ratioP1;P1;durP2;ratioP2;P2;SDS_P1;SDS_P2;PMS_P1;PMS_P2;Temp;Humidity;BMP_temperature;BMP_pressure;BME280_temperature;BME280_humidity;BME280_pressure;Samples;Min_cycle;Max_cycle;Signal;HPM_P1;HPM_P2
2023/07/31 04:10:10;;;;;;;2.70;2.00;;;;;;;21.19;78.42;100257.09;5614451;31;79231;-59
2023/07/31 04:13:15;;;;;;;6.47;2.62;;;;;;;21.19;78.42;100257.09;5602185;31;33419;-60
2023/07/31 04:16:17;;;;;;;4.65;2.45;;;;;;;20.75;82.02;100265.38;5581878;31;34263;-60
2023/07/31 04:19:20;;;;;;;4.18;2.20;;;;;;;20.84;79.69;100263.28;5579769;32;33590;-59
2023/07/31 04:22:22;;;;;;;3.12;2.50;;;;;;;20.87;79.86;100267.25;5583900;31;33568;-59
2023/07/31 04:25:25;;;;;;;4.22;2.33;;;;;;;20.87;79.44;100267.25;5579489;31;34322;-59
2023/07/31 04:28:27;;;;;;;3.72;2.47;;;;;;;20.91;80.21;100276.28;5574725;32;33710;-59
2023/07/31 04:31:29;;;;;;;3.05;2.47;;;;;;;20.93;95.90;100267.78;5583924;31;33606;-59
2023/07/31 04:34:35;;;;;;;3.45;2.40;;;;;;;21.02;84.30;100266.41;5583810;32;33553;-59
2023/07/31 04:37:38;;;;;;;4.12;2.42;;;;;;;21.05;87.13;100270.38;5583634;31;33518;-59
2023/07/31 04:40:40;;;;;;;5.37;2.30;;;;;;;21.16;90.68;100262.44;5583718;32;33527;-59
2023/07/31 04:43:43;;;;;;;3.10;2.22;;;;;;;21.07;83.10;100262.66;5583879;31;34327;-59
2023/07/31 04:46:45;;;;;;;3.25;2.30;;;;;;;21.02;85.78;100263.69;5583870;31;33772;-59
2023/07/31 04:49:47;;;;;;;5.37;2.50;;;;;;;21.07;99.24;100268.88;5583040;31;33774;-59
2023/07/31 04:52:50;;;;;;;3.62;2.20;;;;;;;21.17;98.40;100272.22;5583719;31;33640;-59
2023/07/31 04:55:52;;;;;;;5.00;2.22;;;;;;;21.21;93.26;100273.88;5583589;32;34266;-58
2023/07/31 04:58:54;;;;;;;3.03;2.37;;;;;;;21.10;88.31;100276.38;5583383;32;33716;-59
2023/07/31 05:01:57;;;;;;;9.23;2.70;;;;;;;21.25;91.06;100271.22;5583467;31;33681;-59
2023/07/31 05:04:59;;;;;;;6.00;2.00;;;;;;;21.27;92.26;100272.47;5583511;32;33555;-58
2023/07/31 05:08:01;;;;;;;3.05;2.12;;;;;;;21.24;79.33;100275.09;5582608;31;33690;-59
2023/07/31 05:11:04;;;;;;;13.60;7.40;;;;;;;21.01;78.27;100285.88;5583524;31;34418;-58
2023/07/31 05:14:07;;;;;;;5.40;2.33;;;;;;;21.28;97.60;100287.66;5583321;32;34453;-61
2023/07/31 05:17:09;;;;;;;3.87;1.90;;;;;;;21.51;89.09;100285.09;5583052;32;33598;-61
2023/07/31 05:20:14;;;;;;;5.25;2.08;;;;;;;21.47;68.73;100278.78;5569081;32;33721;-61
2023/07/31 05:25:20;;;;;;;5.25;2.05;;;;;;;21.88;64.29;100264.81;5605787;31;126756;-61
2023/07/31 05:28:23;;;;;;;4.75;1.90;;;;;;;21.88;64.29;100264.81;5591915;31;34049;-61
2023/07/31 05:31:25;;;;;;;1999.90;364.65;;;;;;;21.42;64.06;100275.53;5601945;31;33482;-61
2023/07/31 05:34:28;;;;;;;493.83;54.85;;;;;;;21.49;64.64;100283.88;5603230;31;34050;-61
2023/07/31 05:37:31;;;;;;;829.58;91.20;;;;;;;21.57;61.02;100283.69;5601593;31;33666;-61
2023/07/31 05:40:33;;;;;;;203.52;10.70;;;;;;;21.52;59.17;100286.69;5603181;31;33882;-61
2023/07/31 05:43:36;;;;;;;433.62;45.67;;;;;;;21.43;61.45;100290.75;5601984;31;34428;-61
2023/07/31 05:46:38;;;;;;;10.13;2.67;;;;;;;21.44;65.78;100293.12;5583617;31;34270;-61
2023/07/31 05:49:41;;;;;;;846.63;102.95;;;;;;;21.39;63.21;100304.31;5584642;31;33558;-60
2023/07/31 05:52:43;;;;;;;8.52;2.28;;;;;;;21.56;59.74;100290.28;5582445;32;34955;-61
2023/07/31 05:55:46;;;;;;;7.40;1.70;;;;;;;21.60;58.81;100292.31;5596304;31;33321;-61
2023/07/31 05:58:50;;;;;;;1161.88;146.77;;;;;;;21.62;55.89;100306.34;5594549;31;34332;-61
2023/07/31 06:01:53;;;;;;;81.28;9.70;;;;;;;21.67;62.43;100301.44;5583444;31;33572;-61
2023/07/31 06:04:55;;;;;;;19.05;3.78;;;;;;;21.79;61.33;100312.22;5583504;31;34292;-61
2023/07/31 06:07:57;;;;;;;6.10;2.05;;;;;;;21.80;60.37;100307.53;5583417;31;34330;-61
2023/07/31 06:11:00;;;;;;;7.87;2.97;;;;;;;22.00;58.65;100309.13;5583523;31;34262;-61
2023/07/31 06:14:02;;;;;;;11.80;2.00;;;;;;;22.15;55.68;100298.50;5578511;31;34237;-61
2023/07/31 06:17:05;;;;;;;1524.18;199.45;;;;;;;22.22;55.87;100304.16;5564829;32;33586;-61
2023/07/31 06:20:08;;;;;;;1086.47;135.65;;;;;;;22.25;56.12;100298.75;5563788;32;33606;-61
2023/07/31 06:23:10;;;;;;;1648.70;232.57;;;;;;;22.23;54.02;100311.19;5566997;32;34293;-60
2023/07/31 06:26:12;;;;;;;54.22;9.68;;;;;;;22.45;56.71;100309.62;5582977;32;33425;-60
2023/07/31 06:29:15;;;;;;;77.05;13.73;;;;;;;22.65;55.09;100308.44;5583171;32;33528;-60
2023/07/31 06:32:17;;;;;;;15.05;1.85;;;;;;;22.75;55.24;100304.34;5583350;31;33538;-60
2023/07/31 06:35:20;;;;;;;49.90;7.05;;;;;;;22.89;52.18;100296.38;5574944;31;33640;-60
2023/07/31 06:38:24;;;;;;;21.40;2.83;;;;;;;22.92;54.29;100298.37;5568559;32;34248;-60
2023/07/31 06:41:27;;;;;;;6.33;2.30;;;;;;;22.65;52.52;100293.97;5570259;32;33563;-60
2023/07/31 06:44:29;;;;;;;967.15;117.25;;;;;;;22.50;53.09;100295.69;5570231;32;33686;-60
2023/07/31 06:47:32;;;;;;;243.35;29.30;;;;;;;22.42;54.39;100297.50;5566899;32;33723;-60
2023/07/31 06:50:34;;;;;;;216.75;26.52;;;;;;;22.32;54.03;100306.28;5568923;32;33843;-60
2023/07/31 06:53:37;;;;;;;37.72;6.35;;;;;;;22.33;52.27;100304.34;5570155;32;33722;-60
2023/07/31 06:56:39;;;;;;;31.90;4.10;;;;;;;22.23;51.64;100305.72;5568656;32;33536;-60
2023/07/31 06:59:42;;;;;;;260.25;20.30;;;;;;;22.28;54.38;100314.41;5569821;32;33603;-61
2023/07/31 07:02:47;;;;;;;4.75;2.00;;;;;;;22.29;55.15;100307.00;5569981;32;33048;-60
2023/07/31 07:05:50;;;;;;;4.12;2.10;;;;;;;22.09;53.29;100308.16;5566306;32;33527;-60
2023/07/31 07:08:52;;;;;;;13.93;2.37;;;;;;;22.11;53.02;100320.25;5569554;32;33866;-60
2023/07/31 07:11:55;;;;;;;15.15;2.35;;;;;;;22.02;54.01;100336.88;5569515;32;33561;-60
2023/07/31 07:14:57;;;;;;;34.60;6.12;;;;;;;21.75;55.30;100324.97;5569874;32;34276;-60
2023/07/31 07:18:00;;;;;;;8.63;2.40;;;;;;;21.69;59.51;100331.87;5569352;32;33540;-60
2023/07/31 07:21:02;;;;;;;21.92;3.83;;;;;;;21.72;56.38;100331.16;5569640;32;33645;-60
2023/07/31 07:24:05;;;;;;;12.27;2.28;;;;;;;21.80;57.38;100334.84;5565480;32;34301;-61
2023/07/31 07:27:07;;;;;;;11.60;2.45;;;;;;;21.86;56.96;100338.09;5566391;32;33683;-60
2023/07/31 07:30:10;;;;;;;16.10;3.72;;;;;;;21.99;56.85;100337.59;5568452;32;32193;-60
2023/07/31 07:33:13;;;;;;;4.85;2.00;;;;;;;22.27;59.64;100331.16;5569546;32;31556;-60
2023/07/31 07:36:15;;;;;;;8.20;2.47;;;;;;;22.37;54.78;100336.03;5569564;32;33943;-58
2023/07/31 07:39:18;;;;;;;35.70;3.62;;;;;;;22.58;56.98;100334.84;5568890;32;33643;-58
2023/07/31 07:42:20;;;;;;;9.68;2.70;;;;;;;22.55;53.08;100325.44;5560891;32;33851;-58
2023/07/31 07:45:22;;;;;;;4.37;1.98;;;;;;;22.51;52.96;100330.81;5563978;32;34295;-58
2023/07/31 07:48:25;;;;;;;21.60;4.90;;;;;;;22.55;52.18;100325.44;5567139;32;34293;-58
2023/07/31 07:51:27;;;;;;;6.35;2.10;;;;;;;22.45;54.15;100318.63;5566154;32;34383;-58
2023/07/31 07:54:30;;;;;;;10.30;2.60;;;;;;;22.41;52.24;100331.41;5569594;32;34579;-57
2023/07/31 07:57:32;;;;;;;9.98;6.43;;;;;;;22.19;51.78;100326.69;5569330;32;34130;-60
2023/07/31 08:00:35;;;;;;;5.25;2.17;;;;;;;22.17;52.68;100323.53;5564915;32;33800;-58
2023/07/31 08:03:37;;;;;;;67.93;15.38;;;;;;;22.07;52.98;100329.53;5552693;32;34356;-59
2023/07/31 08:06:39;;;;;;;188.40;23.38;;;;;;;22.31;65.78;100323.81;5562085;32;33660;-59
2023/07/31 08:09:42;;;;;;;17.10;2.33;;;;;;;22.57;55.15;100333.25;5549940;32;34365;-59
2023/07/31 08:12:45;;;;;;;20.85;4.07;;;;;;;22.66;50.40;100328.37;5549880;32;33146;-59
2023/07/31 08:15:47;;;;;;;17.80;4.85;;;;;;;22.74;49.11;100328.09;5549689;32;33658;-59
2023/07/31 08:18:49;;;;;;;25.67;5.45;;;;;;;22.67;47.91;100332.66;5549969;32;33403;-59
2023/07/31 08:21:52;;;;;;;56.00;10.77;;;;;;;22.63;51.79;100345.47;5549881;32;33646;-59
